createdAt,value
2018-12-16T00:04:01.482Z,64.16
2018-12-16T00:14:29.522Z,64.71
2018-12-16T00:19:33.870Z,64.76
2018-12-16T00:24:38.660Z,64.70
2018-12-16T00:35:01.799Z,64.66
2018-12-16T00:40:09.210Z,64.70
2018-12-16T00:45:14.081Z,64.68
2018-12-16T00:55:40.319Z,65.29
2018-12-16T01:06:01.602Z,65.89
2018-12-16T01:11:06.277Z,65.24
2018-12-16T01:21:31.666Z,65.04
2018-12-16T01:26:36.122Z,64.77
2018-12-16T01:37:08.579Z,65.62
2018-12-16T01:47:35.214Z,66.32
2018-12-16T01:58:04.784Z,66.66
2018-12-16T02:03:09.474Z,65.98
2018-12-16T02:08:16.400Z,66.36
2018-12-16T02:18:40.932Z,66.05
2018-12-16T02:23:45.733Z,65.64
2018-12-16T02:28:51.306Z,65.99
2018-12-16T02:33:56.924Z,66.22
2018-12-16T02:39:01.811Z,66.02
2018-12-16T02:44:07.831Z,66.00
2018-12-16T02:49:13.194Z,65.60
2018-12-16T02:54:18.996Z,65.85
2018-12-16T02:59:23.741Z,66.53
2018-12-16T03:04:30.573Z,65.68
2018-12-16T03:09:36.005Z,65.38
2018-12-16T03:14:40.909Z,65.17
2018-12-16T03:19:45.951Z,65.39
2018-12-16T03:30:12.875Z,65.70
2018-12-16T03:35:18.019Z,65.29
2018-12-16T03:45:42.358Z,65.92
2018-12-16T03:50:46.883Z,65.67
2018-12-16T03:55:52.890Z,65.54
2018-12-16T04:00:59.218Z,64.85
2018-12-16T04:06:04.192Z,64.45
2018-12-16T04:11:09.768Z,64.79
2018-12-16T04:16:15.831Z,64.30
2018-12-16T04:21:21.354Z,64.53
2018-12-16T04:26:26.146Z,63.93
2018-12-16T04:31:31.602Z,64.50
2018-12-16T04:42:03.483Z,63.84
2018-12-16T04:47:08.223Z,63.83
2018-12-16T04:52:12.758Z,64.22
2018-12-16T04:57:17.749Z,64.29
2018-12-16T05:02:23.173Z,64.15
2018-12-16T05:12:48.302Z,63.84
2018-12-16T05:17:55.640Z,63.90
2018-12-16T05:23:01.599Z,64.04
2018-12-16T05:28:06.843Z,64.03
2018-12-16T05:33:11.609Z,63.24
2018-12-16T05:38:16.201Z,63.02
2018-12-16T05:43:22.132Z,63.11
2018-12-16T05:48:27.877Z,62.72
2018-12-16T05:53:36.004Z,61.79
2018-12-16T05:58:42.599Z,61.79
2018-12-16T06:03:49.514Z,61.95
2018-12-16T06:08:55.461Z,61.22
2018-12-16T06:14:00.893Z,61.26
2018-12-16T06:19:05.122Z,61.44
2018-12-16T06:24:11.052Z,61.78
2018-12-16T06:36:56.726Z,61.60
2018-12-16T06:47:32.891Z,61.41
2018-12-16T06:52:38.145Z,61.01
2018-12-16T06:57:43.142Z,60.77
2018-12-16T07:02:53.212Z,60.95
2018-12-16T07:07:59.602Z,61.45
2018-12-16T07:13:05.354Z,61.14
2018-12-16T07:18:11.005Z,60.74
2018-12-16T07:23:18.373Z,60.87
2018-12-16T07:33:40.262Z,60.39
2018-12-16T07:38:45.688Z,60.32
2018-12-16T07:43:51.176Z,61.28
2018-12-16T07:48:55.848Z,60.58
2018-12-16T07:54:00.078Z,60.46
2018-12-16T07:59:05.208Z,59.63
2018-12-16T08:09:31.310Z,59.84
2018-12-16T08:20:07.655Z,58.57
2018-12-16T08:30:40.558Z,58.77
2018-12-16T08:35:46.117Z,58.57
2018-12-16T08:40:51.188Z,58.45
2018-12-16T08:45:56.463Z,57.70
2018-12-16T08:51:02.856Z,57.92
2018-12-16T08:56:09.822Z,57.31
2018-12-16T09:06:36.041Z,58.03
2018-12-16T09:11:43.825Z,58.18
2018-12-16T09:16:49.167Z,58.02
2018-12-16T09:21:54.450Z,57.58
2018-12-16T09:27:00.592Z,57.57
2018-12-16T09:32:06.303Z,57.83
2018-12-16T09:37:12.361Z,57.97
2018-12-16T09:42:18.069Z,58.24
2018-12-16T09:52:44.041Z,58.77
2018-12-16T09:57:48.881Z,58.91
2018-12-16T10:02:53.646Z,59.86
2018-12-16T10:07:57.887Z,60.52
2018-12-16T10:13:02.163Z,60.89
2018-12-16T10:18:06.525Z,61.20
2018-12-16T10:28:32.540Z,62.90
2018-12-16T10:33:37.595Z,63.73
2018-12-16T10:38:43.507Z,63.91
2018-12-16T10:43:50.156Z,65.03
2018-12-16T10:48:56.965Z,66.00
2018-12-16T10:59:23.991Z,68.38
2018-12-16T11:04:29.128Z,68.82
2018-12-16T11:09:36.422Z,69.69
2018-12-16T11:14:42.279Z,70.36
2018-12-16T11:19:47.088Z,70.54
2018-12-16T11:24:52.423Z,70.93
2018-12-16T11:29:57.590Z,71.80
2018-12-16T11:35:02.215Z,72.38
2018-12-16T11:40:08.341Z,72.95
2018-12-16T11:45:13.745Z,73.16
2018-12-16T11:50:18.829Z,72.67
2018-12-16T11:55:23.159Z,72.69
2018-12-16T12:00:28.999Z,72.48
2018-12-16T12:05:35.144Z,71.82
2018-12-16T12:10:41.045Z,72.02
2018-12-16T12:15:47.341Z,72.15
2018-12-16T12:20:52.603Z,72.34
2018-12-16T12:25:57.225Z,72.00
2018-12-16T12:31:07.023Z,71.92
2018-12-16T12:41:44.346Z,72.44
2018-12-16T12:46:49.201Z,72.58
2018-12-16T12:51:57.413Z,72.92
2018-12-16T12:57:02.880Z,72.43
2018-12-16T13:02:08.283Z,72.56
2018-12-16T13:12:37.186Z,72.42
2018-12-16T13:17:45.735Z,72.42
2018-12-16T13:22:53.010Z,71.99
2018-12-16T13:33:19.294Z,72.46
2018-12-16T13:38:25.737Z,72.09
2018-12-16T13:48:59.284Z,72.22
2018-12-16T13:54:03.657Z,72.42
2018-12-16T13:59:08.045Z,72.35
2018-12-16T14:04:12.779Z,71.85
2018-12-16T14:14:40.344Z,72.49
2018-12-16T14:19:46.744Z,72.26
2018-12-16T14:24:51.381Z,72.76
2018-12-16T14:29:56.807Z,73.12
2018-12-16T14:35:01.668Z,73.03
2018-12-16T14:45:30.522Z,72.96
2018-12-16T14:50:36.586Z,73.07
2018-12-16T14:55:41.613Z,72.88
2018-12-16T15:00:47.644Z,73.36
2018-12-16T15:05:56.954Z,73.00
2018-12-16T15:11:02.945Z,73.47
2018-12-16T15:16:10.333Z,72.90
2018-12-16T15:21:15.688Z,72.83
2018-12-16T15:26:22.504Z,73.07
2018-12-16T15:31:27.494Z,73.16
2018-12-16T15:42:01.144Z,73.40
2018-12-16T15:47:05.664Z,73.63
2018-12-16T15:52:10.295Z,73.35
2018-12-16T15:57:15.166Z,72.88
2018-12-16T16:02:20.389Z,73.12
2018-12-16T16:07:26.328Z,72.62
2018-12-16T16:12:30.563Z,72.50
2018-12-16T16:23:01.624Z,73.00
2018-12-16T16:28:06.093Z,73.00
2018-12-16T16:33:10.663Z,73.05
2018-12-16T16:38:15.287Z,72.57
2018-12-16T16:43:19.777Z,72.97
2018-12-16T16:53:49.993Z,73.64
2018-12-16T16:58:55.113Z,73.35
2018-12-16T17:04:00.301Z,73.11
2018-12-16T17:09:08.580Z,73.26
2018-12-16T17:14:12.879Z,72.95
2018-12-16T17:19:17.530Z,73.53
2018-12-16T17:29:50.444Z,73.71
2018-12-16T17:34:54.830Z,73.78
2018-12-16T17:39:59.559Z,73.10
2018-12-16T17:45:05.273Z,73.51
2018-12-16T17:50:10.003Z,73.59
2018-12-16T17:55:15.197Z,73.82
2018-12-16T18:00:20.283Z,73.30
2018-12-16T18:05:25.682Z,73.62
2018-12-16T18:15:58.980Z,73.43
2018-12-16T18:21:04.309Z,73.63
2018-12-16T18:26:11.340Z,73.68
2018-12-16T18:31:17.536Z,73.25
2018-12-16T18:36:24.634Z,73.41
2018-12-16T18:41:31.108Z,73.51
2018-12-16T18:46:38.494Z,74.26
2018-12-16T18:51:45.742Z,75.11
2018-12-16T18:56:57.077Z,75.26
2018-12-16T19:02:05.626Z,75.32
2018-12-16T19:07:10.863Z,74.77
2018-12-16T19:17:40.116Z,75.02
2018-12-16T19:22:45.254Z,74.86
2018-12-16T19:27:49.883Z,74.89
2018-12-16T19:32:55.458Z,75.32
2018-12-16T19:38:03.107Z,75.19
2018-12-16T19:43:09.151Z,75.04
2018-12-16T19:48:46.095Z,75.54
2018-12-16T20:03:22.172Z,77.27
2018-12-16T20:08:28.081Z,77.06
2018-12-16T20:13:32.522Z,76.62
2018-12-16T20:18:38.056Z,77.20
2018-12-16T20:29:15.462Z,77.58
2018-12-16T20:34:20.162Z,77.34
2018-12-16T20:39:25.268Z,77.60
2018-12-16T20:44:30.061Z,77.35
2018-12-16T20:49:35.019Z,77.39
2018-12-16T20:54:40.474Z,77.73
2018-12-16T20:59:45.359Z,77.97
2018-12-16T21:04:50.851Z,77.79
2018-12-16T21:09:55.493Z,78.14
2018-12-16T21:15:06.504Z,78.78
2018-12-16T21:20:12.073Z,79.01
2018-12-16T21:30:39.981Z,78.73
2018-12-16T21:41:09.349Z,79.38
2018-12-16T21:51:54.221Z,79.61
2018-12-16T21:56:59.945Z,80.57
2018-12-16T22:02:05.794Z,80.61
2018-12-16T22:07:21.506Z,80.27
2018-12-16T22:12:28.642Z,79.99
2018-12-16T22:22:55.559Z,80.35
2018-12-16T22:33:22.402Z,80.24
2018-12-16T22:38:27.238Z,79.95
2018-12-16T22:43:31.909Z,80.13
2018-12-16T22:48:37.845Z,80.29
2018-12-16T22:53:43.529Z,80.67
2018-12-16T22:58:54.313Z,80.37
2018-12-16T23:03:58.549Z,81.01
2018-12-16T23:09:05.443Z,80.71
2018-12-16T23:14:12.701Z,80.57
2018-12-16T23:19:20.415Z,80.17
2018-12-16T23:30:00.855Z,80.35
2018-12-16T23:40:32.645Z,80.79
2018-12-16T23:45:38.643Z,80.58
2018-12-16T23:50:43.283Z,80.55
